Time;durP1;ratioP1;P1;durP2;ratioP2;P2;SDS_P1;SDS_P2;PMS_P1;PMS_P2;Temp;Humidity;BMP_temperature;BMP_pressure;BME280_temperature;BME280_humidity;BME280_pressure;Samples;Min_cycle;Max_cycle;Signal;HPM_P1;HPM_P2
2024/02/15 00:01:28;;;;;;;4.80;1.90;;;;;;;5.81;67.01;101068.50;104385;1251;61053;-64
2024/02/15 00:03:57;;;;;;;3.50;1.30;;;;;;;5.75;67.24;101074.34;104277;1254;61367;-62
2024/02/15 00:06:24;;;;;;;4.90;1.50;;;;;;;5.78;67.05;101073.85;104738;1254;65342;-63
2024/02/15 00:08:52;;;;;;;4.20;1.60;;;;;;;5.80;67.06;101074.99;104377;1254;60699;-66
2024/02/15 00:11:20;;;;;;;5.50;2.80;;;;;;;5.73;67.33;101071.30;104300;1251;63781;-65
2024/02/15 00:13:47;;;;;;;4.30;1.70;;;;;;;5.71;67.31;101075.40;104411;1253;60595;-68
2024/02/15 00:16:15;;;;;;;5.40;1.30;;;;;;;5.75;67.23;101073.44;104446;1257;60379;-67
2024/02/15 00:18:44;;;;;;;4.20;1.30;;;;;;;5.76;67.29;101078.27;104218;1258;66045;-65
2024/02/15 00:21:12;;;;;;;5.90;1.80;;;;;;;5.73;67.43;101080.52;104524;1257;60915;-64
2024/02/15 00:23:42;;;;;;;4.10;1.10;;;;;;;5.74;67.37;101078.90;104229;1257;62495;-67
2024/02/15 00:26:11;;;;;;;4.10;1.70;;;;;;;5.76;67.30;101084.05;108830;1254;58954;-69
2024/02/15 00:28:43;;;;;;;6.70;2.30;;;;;;;5.76;67.26;101084.37;105483;1251;60466;-61
2024/02/15 00:31:10;;;;;;;4.10;1.10;;;;;;;5.71;67.27;101084.27;104355;1254;63684;-64
2024/02/15 00:33:38;;;;;;;3.50;1.30;;;;;;;5.70;67.21;101086.44;104302;1254;60693;-63
2024/02/15 00:36:07;;;;;;;4.90;1.40;;;;;;;5.75;67.08;101090.70;104311;1259;62673;-66
2024/02/15 00:38:35;;;;;;;3.90;1.20;;;;;;;5.75;67.08;101087.91;108889;1251;58378;-67
2024/02/15 00:41:02;;;;;;;4.10;1.30;;;;;;;5.74;66.99;101085.38;107766;1251;62446;-64
2024/02/15 00:43:30;;;;;;;5.00;1.20;;;;;;;5.68;66.97;101091.95;104399;1253;65418;-63
2024/02/15 00:45:58;;;;;;;4.00;1.10;;;;;;;5.66;66.96;101089.41;104277;1251;62263;-65
2024/02/15 00:48:28;;;;;;;4.10;1.80;;;;;;;5.64;66.99;101090.90;104356;1254;64838;-65
2024/02/15 00:50:57;;;;;;;4.90;1.10;;;;;;;5.59;67.08;101088.02;108846;1251;58543;-65
2024/02/15 00:53:25;;;;;;;4.20;1.20;;;;;;;5.58;67.04;101088.22;108806;1251;59069;-63
2024/02/15 00:55:53;;;;;;;3.40;1.20;;;;;;;5.64;66.86;101090.05;108814;1251;65107;-64
2024/02/15 00:58:21;;;;;;;4.00;1.30;;;;;;;5.69;66.73;101091.71;108098;1254;60136;-61
2024/02/15 01:00:49;;;;;;;4.70;1.70;;;;;;;5.66;66.87;101096.18;104506;1254;64061;-63
2024/02/15 01:03:17;;;;;;;3.50;1.10;;;;;;;5.65;66.84;101093.83;104663;1254;61347;-66
2024/02/15 01:05:45;;;;;;;7.60;3.30;;;;;;;5.69;66.72;101094.84;104692;1254;60481;-66
2024/02/15 01:08:12;;;;;;;5.20;1.50;;;;;;;5.62;66.86;101088.90;108723;1251;64616;-67
2024/02/15 01:10:40;;;;;;;4.40;1.70;;;;;;;5.63;66.80;101089.05;104794;1258;60373;-65
2024/02/15 01:13:09;;;;;;;7.30;3.10;;;;;;;5.65;66.81;101089.10;104353;1254;64240;-63
2024/02/15 01:15:39;;;;;;;5.40;1.80;;;;;;;5.70;66.77;101090.77;105651;1260;60556;-64
2024/02/15 01:18:07;;;;;;;5.60;2.40;;;;;;;5.73;66.74;101090.80;108823;1251;59942;-63
2024/02/15 01:20:36;;;;;;;10.90;4.50;;;;;;;5.75;66.65;101092.47;108804;1251;63774;-61
2024/02/15 01:23:07;;;;;;;5.30;1.70;;;;;;;5.80;66.52;101093.77;108788;1251;60796;-64
2024/02/15 01:25:35;;;;;;;14.00;3.70;;;;;;;5.87;66.32;101096.92;106916;1251;63796;-67
2024/02/15 01:28:03;;;;;;;10.30;4.20;;;;;;;5.85;66.26;101094.77;104490;1256;59305;-63
2024/02/15 01:30:32;;;;;;;7.80;4.20;;;;;;;5.80;66.38;101093.46;108819;1251;60279;-70
2024/02/15 01:33:00;;;;;;;4.80;1.80;;;;;;;5.80;66.24;101095.01;108914;1254;64957;-70
2024/02/15 01:35:28;;;;;;;5.20;1.80;;;;;;;5.81;65.89;101093.55;106089;1257;60145;-67
2024/02/15 01:37:56;;;;;;;4.80;1.60;;;;;;;5.81;65.93;101097.07;104374;1254;62486;-68
2024/02/15 01:40:23;;;;;;;5.00;1.60;;;;;;;5.83;65.88;101096.98;104439;1254;60548;-72
2024/02/15 01:42:51;;;;;;;5.90;1.40;;;;;;;5.83;65.81;101097.48;104347;1253;60539;-67
2024/02/15 01:45:19;;;;;;;4.70;1.40;;;;;;;5.89;65.84;101101.34;104368;1254;64955;-66
2024/02/15 01:47:48;;;;;;;6.00;1.90;;;;;;;5.91;65.87;101106.34;108859;1254;60266;-67
2024/02/15 01:50:17;;;;;;;5.10;1.60;;;;;;;5.84;65.84;101101.25;108003;1254;66207;-61
2024/02/15 01:52:47;;;;;;;6.30;1.70;;;;;;;5.88;65.70;101104.38;104276;1254;61580;-68
2024/02/15 01:55:15;;;;;;;6.40;1.80;;;;;;;5.91;65.62;101103.18;104362;1254;60792;-66
2024/02/15 01:57:44;;;;;;;5.90;1.90;;;;;;;5.90;65.60;101101.48;104366;1253;63650;-66
2024/02/15 02:00:13;;;;;;;5.00;1.60;;;;;;;5.85;65.61;101101.73;104386;1254;61380;-62
2024/02/15 02:02:41;;;;;;;4.20;1.50;;;;;;;5.75;65.82;101106.02;108768;1252;63680;-69
2024/02/15 02:05:09;;;;;;;4.20;1.30;;;;;;;5.76;65.83;101104.23;106836;1257;61914;-69
2024/02/15 02:07:37;;;;;;;5.10;1.70;;;;;;;5.74;65.88;101101.89;104493;1252;61026;-66
2024/02/15 02:10:06;;;;;;;4.00;1.20;;;;;;;5.67;66.19;101099.29;108512;1251;64891;-66
2024/02/15 02:12:34;;;;;;;4.90;2.00;;;;;;;5.66;66.28;101100.21;108793;1251;60387;-69
2024/02/15 02:15:01;;;;;;;4.90;1.80;;;;;;;5.73;66.15;101099.69;108633;1257;63771;-65
2024/02/15 02:17:29;;;;;;;4.80;1.50;;;;;;;5.70;66.35;101098.95;108685;1254;59482;-64
2024/02/15 02:19:57;;;;;;;6.30;1.80;;;;;;;5.65;66.53;101103.54;104280;1254;60296;-63
2024/02/15 02:22:25;;;;;;;5.80;2.00;;;;;;;5.67;66.45;101108.16;104371;1257;65844;-67
2024/02/15 02:24:58;;;;;;;5.60;1.90;;;;;;;5.68;66.43;101108.10;108701;1251;60231;-64
2024/02/15 02:27:29;;;;;;;5.60;1.70;;;;;;;5.67;66.49;101104.31;108818;1254;66757;-68
2024/02/15 02:29:59;;;;;;;7.00;2.10;;;;;;;5.65;66.56;101101.83;104536;1251;60462;-67
2024/02/15 02:32:27;;;;;;;5.80;1.70;;;;;;;5.70;66.46;101101.73;108877;1256;60036;-67
2024/02/15 02:34:57;;;;;;;5.20;1.50;;;;;;;5.70;66.47;101101.20;105798;1251;64906;-64
2024/02/15 02:37:25;;;;;;;6.20;1.90;;;;;;;5.70;66.45;101104.00;104247;1256;60442;-64
2024/02/15 02:39:52;;;;;;;5.80;2.20;;;;;;;5.68;66.53;101107.94;104299;1253;63714;-70
2024/02/15 02:42:21;;;;;;;4.50;1.30;;;;;;;5.65;66.57;101107.22;104435;1253;60667;-66
2024/02/15 02:44:48;;;;;;;4.30;1.30;;;;;;;5.69;66.50;101106.13;104378;1254;60504;-67
2024/02/15 02:47:16;;;;;;;6.80;2.60;;;;;;;5.68;66.60;101108.13;108791;1253;67428;-69
2024/02/15 02:49:44;;;;;;;9.80;3.50;;;;;;;5.63;66.70;101111.32;108823;1251;61359;-68
2024/02/15 02:52:12;;;;;;;6.40;2.10;;;;;;;5.64;66.64;101112.65;108762;1256;63658;-68
2024/02/15 02:54:39;;;;;;;4.40;1.60;;;;;;;5.68;66.54;101109.69;108858;1251;58669;-68
2024/02/15 02:57:07;;;;;;;4.60;1.50;;;;;;;5.69;66.60;101110.51;108779;1251;59041;-68
2024/02/15 02:59:35;;;;;;;9.10;2.90;;;;;;;5.67;66.63;101110.60;108835;1251;64929;-69
2024/02/15 03:02:03;;;;;;;7.50;1.70;;;;;;;5.70;66.50;101115.70;108774;1251;60101;-68
2024/02/15 03:04:32;;;;;;;4.40;1.20;;;;;;;5.71;66.42;101116.33;107911;1254;62502;-70
2024/02/15 03:07:00;;;;;;;6.50;1.80;;;;;;;5.70;66.40;101120.21;108830;1254;58868;-69
2024/02/15 03:09:29;;;;;;;5.60;3.30;;;;;;;5.70;66.41;101121.09;105763;1253;60715;-70
2024/02/15 03:11:57;;;;;;;5.00;1.80;;;;;;;5.63;66.51;101120.38;104375;1254;65158;-68
2024/02/15 03:14:25;;;;;;;4.00;1.20;;;;;;;5.61;66.47;101123.60;104262;1254;61123;-67
2024/02/15 03:16:55;;;;;;;4.70;1.30;;;;;;;5.58;66.51;101129.13;104321;1256;63864;-65
2024/02/15 03:19:23;;;;;;;4.00;1.20;;;;;;;5.56;66.62;101132.51;104296;1253;60374;-68
2024/02/15 03:21:53;;;;;;;5.40;1.90;;;;;;;5.54;66.58;101136.60;104337;1256;60645;-68
2024/02/15 03:24:20;;;;;;;4.10;2.10;;;;;;;5.56;66.43;101137.38;104378;1254;66495;-71
2024/02/15 03:26:48;;;;;;;4.00;1.30;;;;;;;5.53;66.50;101138.55;104365;1253;60948;-74
2024/02/15 03:29:16;;;;;;;4.70;1.50;;;;;;;5.49;66.57;101140.34;104417;1258;62542;-70
2024/02/15 03:31:44;;;;;;;4.90;1.40;;;;;;;5.48;66.55;101142.13;108094;1253;60505;-65
2024/02/15 03:34:14;;;;;;;7.10;2.30;;;;;;;5.53;66.52;101139.99;108742;1256;59725;-65
2024/02/15 03:36:42;;;;;;;5.40;1.70;;;;;;;5.53;66.52;101139.45;108771;1253;63722;-63
2024/02/15 03:39:10;;;;;;;5.00;1.50;;;;;;;5.49;66.46;101142.94;108329;1259;60179;-69
2024/02/15 03:41:37;;;;;;;6.30;2.20;;;;;;;5.54;66.37;101145.16;104380;1256;62485;-67
2024/02/15 03:44:05;;;;;;;4.60;1.10;;;;;;;5.57;66.32;101146.92;104425;1253;60448;-69
2024/02/15 03:46:33;;;;;;;3.40;1.30;;;;;;;5.56;66.36;101149.39;104241;1253;60498;-64
2024/02/15 03:49:01;;;;;;;4.10;1.20;;;;;;;5.54;66.46;101153.17;104179;1256;65016;-66
2024/02/15 03:51:29;;;;;;;4.30;1.30;;;;;;;5.55;66.38;101146.65;104404;1253;61293;-63
2024/02/15 03:53:56;;;;;;;4.50;1.30;;;;;;;5.55;66.42;101148.06;104288;1254;66118;-62
2024/02/15 03:56:24;;;;;;;4.30;1.30;;;;;;;5.52;66.35;101150.64;104217;1253;61976;-65
2024/02/15 03:58:52;;;;;;;4.30;1.60;;;;;;;5.46;66.41;101155.64;104268;1254;60930;-66
2024/02/15 04:01:19;;;;;;;3.70;1.10;;;;;;;5.46;66.34;101150.95;104272;1255;65246;-67
2024/02/15 04:03:47;;;;;;;3.80;1.40;;;;;;;5.45;66.37;101156.00;104628;1253;61423;-61
2024/02/15 04:06:15;;;;;;;3.70;1.30;;;;;;;5.37;66.52;101157.42;104464;1259;62572;-59
2024/02/15 04:08:43;;;;;;;4.30;1.30;;;;;;;5.35;66.56;101158.21;104346;1253;62508;-68
2024/02/15 04:11:11;;;;;;;3.20;0.80;;;;;;;5.36;66.50;101157.46;108867;1253;59009;-61
2024/02/15 04:13:39;;;;;;;3.60;1.30;;;;;;;5.35;66.47;101160.14;107465;1257;65806;-64
2024/02/15 04:16:06;;;;;;;6.80;1.60;;;;;;;5.35;66.51;101165.17;104370;1254;63137;-65
2024/02/15 04:18:34;;;;;;;4.80;1.30;;;;;;;5.43;66.34;101167.92;104276;1256;63892;-64
2024/02/15 04:21:02;;;;;;;3.60;1.00;;;;;;;5.45;66.21;101165.59;104470;1259;60559;-67
2024/02/15 04:23:29;;;;;;;5.50;1.50;;;;;;;5.40;66.29;101171.88;104208;1259;454007;-69
2024/02/15 04:38:03;;;;;;;3.30;1.00;;;;;;;5.27;67.01;101171.87;101836;1284;604270;-66
2024/02/15 04:40:31;;;;;;;3.80;1.20;;;;;;;5.77;65.46;101180.09;105531;1267;105059;-60
2024/02/15 04:42:59;;;;;;;7.10;3.50;;;;;;;5.75;65.42;101186.61;103635;1263;59635;-61
2024/02/15 04:45:27;;;;;;;4.80;2.20;;;;;;;5.72;65.57;101189.38;107939;1268;63370;-64
2024/02/15 04:47:57;;;;;;;4.70;1.90;;;;;;;5.66;65.74;101194.02;108040;1263;61455;-63
2024/02/15 04:50:25;;;;;;;5.30;1.40;;;;;;;5.62;65.77;101186.55;108010;1263;63774;-64
2024/02/15 04:52:53;;;;;;;3.20;1.10;;;;;;;5.57;65.76;101184.15;107998;1268;58717;-67
2024/02/15 04:55:22;;;;;;;3.70;1.00;;;;;;;5.54;65.90;101189.70;107992;1264;57820;-69
2024/02/15 04:57:54;;;;;;;4.70;1.40;;;;;;;5.52;65.96;101193.98;108065;1263;62076;-62
2024/02/15 05:00:25;;;;;;;3.20;1.40;;;;;;;5.51;65.97;101195.23;108045;1265;71552;-68
2024/02/15 05:02:53;;;;;;;4.00;0.90;;;;;;;5.56;65.93;101201.63;108294;1264;63802;-72
2024/02/15 05:05:21;;;;;;;3.80;0.90;;;;;;;5.52;66.02;101206.33;104411;1266;59643;-64
2024/02/15 05:07:50;;;;;;;4.50;1.20;;;;;;;5.50;66.02;101208.88;107791;1264;57940;-64
2024/02/15 05:10:18;;;;;;;5.20;1.60;;;;;;;5.46;66.10;101208.49;105507;1264;64676;-68
2024/02/15 05:12:47;;;;;;;3.30;1.10;;;;;;;5.40;66.33;101211.73;104616;1265;61425;-69
2024/02/15 05:15:17;;;;;;;5.00;1.30;;;;;;;5.34;66.55;101214.45;104305;1269;63713;-62
2024/02/15 05:17:47;;;;;;;5.50;1.40;;;;;;;5.35;66.53;101217.70;104648;1264;59803;-63
2024/02/15 05:20:16;;;;;;;4.80;2.40;;;;;;;5.37;66.57;101221.98;104638;1268;59701;-65
2024/02/15 05:22:46;;;;;;;3.90;1.40;;;;;;;5.33;66.71;101221.95;104430;1263;62839;-67
2024/02/15 05:25:23;;;;;;;6.00;1.90;;;;;;;5.32;66.80;101226.90;104322;1268;69148;-68
2024/02/15 05:27:54;;;;;;;4.50;1.50;;;;;;;5.30;66.65;101225.58;104354;1265;64208;-69
2024/02/15 05:30:25;;;;;;;4.20;1.20;;;;;;;5.29;66.81;101227.55;104277;1266;59754;-61
2024/02/15 05:32:53;;;;;;;4.10;1.70;;;;;;;5.25;66.87;101231.91;104435;1264;59798;-67
2024/02/15 05:35:22;;;;;;;7.10;1.60;;;;;;;5.26;66.71;101235.18;105077;1265;63069;-66
2024/02/15 05:37:52;;;;;;;5.30;1.80;;;;;;;5.30;66.61;101233.06;104347;1268;60287;-66
2024/02/15 05:40:20;;;;;;;7.50;2.20;;;;;;;5.31;66.62;101234.96;104845;1268;62528;-65
2024/02/15 05:42:49;;;;;;;4.40;2.20;;;;;;;5.28;66.79;101233.86;104280;1265;59596;-63
2024/02/15 05:45:26;;;;;;;4.80;1.70;;;;;;;5.28;66.70;101234.71;104327;1263;59810;-68
2024/02/15 05:47:54;;;;;;;6.70;2.00;;;;;;;5.30;66.56;101238.09;104984;1266;64815;-69
2024/02/15 05:50:23;;;;;;;7.10;2.40;;;;;;;5.30;66.54;101240.71;104205;1268;60214;-66
2024/02/15 05:52:54;;;;;;;7.70;2.90;;;;;;;5.30;66.62;101243.52;103993;1266;64244;-65
2024/02/15 05:55:22;;;;;;;4.80;2.40;;;;;;;5.28;66.62;101246.73;104100;1268;62030;-64
2024/02/15 05:57:50;;;;;;;6.00;2.60;;;;;;;5.32;66.48;101248.27;104129;1268;59703;-57
2024/02/15 06:00:18;;;;;;;5.70;1.90;;;;;;;5.34;66.43;101247.86;104065;1264;62988;-60
2024/02/15 06:02:49;;;;;;;5.60;2.20;;;;;;;5.30;66.56;101247.33;105106;1267;60129;-68
2024/02/15 06:05:19;;;;;;;7.80;2.70;;;;;;;5.31;66.53;101248.34;104354;1266;62547;-65
2024/02/15 06:07:48;;;;;;;4.70;2.20;;;;;;;5.34;66.30;101251.50;104529;1265;59849;-64
2024/02/15 06:10:16;;;;;;;6.40;1.90;;;;;;;5.36;66.39;101256.11;105272;1266;59757;-64
2024/02/15 06:12:43;;;;;;;8.80;2.90;;;;;;;5.36;66.45;101257.16;104169;1268;64157;-65
2024/02/15 06:15:14;;;;;;;6.70;2.40;;;;;;;5.37;66.42;101260.61;104214;1265;61388;-63
2024/02/15 06:17:44;;;;;;;6.70;2.10;;;;;;;5.43;66.18;101263.65;104006;1265;63715;-60
2024/02/15 06:20:17;;;;;;;6.80;2.80;;;;;;;5.43;66.18;101266.80;104241;1266;59760;-61
2024/02/15 06:22:49;;;;;;;7.00;2.00;;;;;;;5.41;66.24;101268.26;104520;1268;59668;-58
2024/02/15 06:25:20;;;;;;;8.70;3.30;;;;;;;5.42;66.17;101275.90;105312;1263;63387;-61
2024/02/15 06:27:58;;;;;;;5.00;1.60;;;;;;;5.46;65.93;101273.80;105254;1267;60383;-60
2024/02/15 06:41:32;;;;;;;6.60;2.80;;;;;;;5.46;65.70;101291.35;104210;1268;60935;-61
2024/02/15 06:43:59;;;;;;;7.70;2.20;;;;;;;5.43;65.75;101290.79;104436;1265;63778;-64
2024/02/15 06:46:27;;;;;;;6.50;1.80;;;;;;;5.38;65.79;101292.89;104231;1265;60241;-61
2024/02/15 06:48:55;;;;;;;6.60;2.00;;;;;;;5.39;65.77;101298.09;104075;1268;59760;-64
2024/02/15 06:51:24;;;;;;;8.90;4.90;;;;;;;5.42;65.62;101299.55;106037;1265;62947;-61
2024/02/15 06:53:55;;;;;;;6.40;2.50;;;;;;;5.42;65.63;101301.95;105065;1266;60314;-60
2024/02/15 06:56:24;;;;;;;5.60;2.00;;;;;;;5.39;65.65;101299.85;107660;1265;63705;-60
2024/02/15 06:58:53;;;;;;;5.40;1.50;;;;;;;5.38;65.66;101300.23;105228;1266;59778;-63
2024/02/15 07:01:21;;;;;;;6.20;2.40;;;;;;;5.40;65.52;101294.77;105361;1265;59533;-60
2024/02/15 07:03:50;;;;;;;6.30;2.20;;;;;;;5.37;65.46;101298.89;104391;1265;64180;-60
2024/02/15 07:06:17;;;;;;;6.90;2.90;;;;;;;5.29;65.64;101296.27;104394;1268;60303;-61
2024/02/15 07:08:47;;;;;;;6.60;1.70;;;;;;;5.24;65.76;101295.94;104448;1265;63726;-61
2024/02/15 07:11:15;;;;;;;6.20;2.10;;;;;;;5.28;65.65;101298.71;104654;1267;59779;-62
2024/02/15 07:13:46;;;;;;;5.50;2.10;;;;;;;5.28;65.76;101296.48;104598;1268;59618;-62
2024/02/15 07:16:15;;;;;;;6.00;2.90;;;;;;;5.30;65.73;101293.98;104633;1266;64094;-61
2024/02/15 07:18:43;;;;;;;6.00;2.20;;;;;;;5.21;65.94;101291.39;104552;1268;61408;-61
2024/02/15 07:21:13;;;;;;;6.20;2.50;;;;;;;5.17;66.05;101291.02;104426;1270;63771;-62
2024/02/15 07:23:42;;;;;;;7.60;2.30;;;;;;;5.18;66.04;101292.57;105523;1265;59807;-60
2024/02/15 07:26:12;;;;;;;8.70;5.50;;;;;;;5.14;66.24;101292.73;104568;1268;59814;-61
2024/02/15 07:28:44;;;;;;;8.60;2.60;;;;;;;5.13;66.39;101291.05;104735;1268;64118;-61
2024/02/15 07:31:12;;;;;;;6.30;3.50;;;;;;;5.16;66.27;101293.15;104784;1266;61339;-61
2024/02/15 07:33:42;;;;;;;7.40;2.90;;;;;;;5.15;66.27;101291.83;104422;1268;64219;-62
2024/02/15 07:36:11;;;;;;;6.50;2.90;;;;;;;5.13;66.31;101293.29;104243;1270;59737;-64
2024/02/15 07:38:38;;;;;;;8.10;2.50;;;;;;;5.16;66.25;101293.33;104274;1265;60162;-63
2024/02/15 07:41:06;;;;;;;6.60;2.60;;;;;;;5.21;66.24;101298.36;104416;1267;65814;-56
2024/02/15 07:43:34;;;;;;;9.00;2.70;;;;;;;5.19;66.23;101297.37;104686;1265;60259;-62
2024/02/15 07:46:01;;;;;;;8.20;3.50;;;;;;;5.18;66.26;101297.45;104970;1263;62859;-59
2024/02/15 07:48:29;;;;;;;7.50;2.50;;;;;;;5.19;66.25;101301.20;104607;1263;59760;-60
2024/02/15 07:50:58;;;;;;;6.10;2.20;;;;;;;5.26;66.04;101303.88;104712;1263;59757;-60
2024/02/15 07:53:26;;;;;;;6.40;2.80;;;;;;;5.30;65.90;101307.89;105246;1263;63008;-63
2024/02/15 07:55:54;;;;;;;6.10;2.60;;;;;;;5.29;65.94;101309.67;105483;1263;61371;-60
2024/02/15 07:58:22;;;;;;;6.20;3.00;;;;;;;5.26;65.90;101312.07;104658;1264;73193;-59
2024/02/15 08:00:50;;;;;;;6.50;2.40;;;;;;;5.29;65.80;101310.54;104891;1259;59812;-60
2024/02/15 08:03:17;;;;;;;8.50;2.80;;;;;;;5.31;65.77;101312.02;104642;1265;59644;-60
2024/02/15 08:05:46;;;;;;;6.60;2.20;;;;;;;5.27;65.82;101316.53;104834;1260;62900;-62
2024/02/15 08:08:13;;;;;;;7.50;2.80;;;;;;;5.25;65.87;101318.90;104498;1264;60265;-62
2024/02/15 08:10:43;;;;;;;9.60;3.10;;;;;;;5.27;65.78;101317.77;104721;1265;73615;-62
2024/02/15 08:13:11;;;;;;;6.70;2.70;;;;;;;5.30;65.67;101317.30;105653;1261;60297;-59
2024/02/15 08:15:39;;;;;;;13.70;2.90;;;;;;;5.29;65.81;101320.97;104721;1261;59728;-62
2024/02/15 08:18:09;;;;;;;6.50;2.70;;;;;;;5.26;65.82;101319.69;105716;1259;62934;-61
2024/02/15 08:20:37;;;;;;;7.70;3.10;;;;;;;5.28;65.71;101323.63;104939;1260;61356;-60
2024/02/15 08:23:05;;;;;;;8.30;3.40;;;;;;;5.30;65.62;101328.39;104687;1263;63733;-63
2024/02/15 08:25:32;;;;;;;11.00;4.00;;;;;;;5.30;65.70;101327.89;105018;1262;59761;-62
2024/02/15 08:28:05;;;;;;;8.40;3.50;;;;;;;5.29;65.76;101328.98;104842;1259;59652;-59
2024/02/15 08:30:33;;;;;;;7.20;3.30;;;;;;;5.30;65.69;101332.42;104704;1263;65015;-59
2024/02/15 08:33:00;;;;;;;6.90;2.30;;;;;;;5.32;65.63;101335.46;105161;1263;60298;-58
2024/02/15 08:35:28;;;;;;;8.70;3.00;;;;;;;5.33;65.54;101336.27;104544;1259;62442;-58
2024/02/15 08:37:56;;;;;;;7.00;3.30;;;;;;;5.30;65.70;101337.27;105936;1260;59762;-61
2024/02/15 08:40:25;;;;;;;7.90;3.30;;;;;;;5.31;65.70;101340.55;104615;1263;60014;-59
2024/02/15 08:42:55;;;;;;;6.80;3.10;;;;;;;5.37;65.60;101344.11;105234;1259;65523;-61
2024/02/15 08:45:24;;;;;;;8.90;3.60;;;;;;;5.41;65.54;101345.67;104548;1259;61437;-62
2024/02/15 08:47:53;;;;;;;8.50;3.70;;;;;;;5.41;65.46;101345.87;104716;1265;62464;-62
2024/02/15 08:50:23;;;;;;;8.80;3.40;;;;;;;5.41;65.48;101344.66;105520;1260;63539;-61
2024/02/15 08:52:51;;;;;;;9.20;3.60;;;;;;;5.47;65.49;101348.41;106031;1263;60406;-59
2024/02/15 08:55:23;;;;;;;7.50;3.40;;;;;;;5.57;65.27;101350.72;104252;1259;65031;-60
2024/02/15 08:57:54;;;;;;;7.70;3.00;;;;;;;5.59;65.04;101355.52;106169;1259;61827;-61
2024/02/15 09:00:21;;;;;;;8.70;3.50;;;;;;;5.57;65.07;101358.91;106302;1263;63830;-59
2024/02/15 09:02:49;;;;;;;9.30;3.40;;;;;;;5.54;65.11;101359.91;104705;1259;60882;-60
2024/02/15 09:05:17;;;;;;;11.40;3.40;;;;;;;5.56;64.98;101362.27;104639;1259;60358;-72
2024/02/15 09:07:50;;;;;;;8.00;3.60;;;;;;;5.57;64.98;101367.13;104706;1259;63751;-69
2024/02/15 09:10:18;;;;;;;9.00;3.30;;;;;;;5.53;65.05;101370.92;104785;1261;62339;-69
2024/02/15 09:12:48;;;;;;;9.20;4.10;;;;;;;5.52;65.17;101373.39;105064;1259;72902;-65
2024/02/15 09:15:17;;;;;;;10.60;3.60;;;;;;;5.56;65.02;101376.03;104738;1262;61464;-66
2024/02/15 09:17:46;;;;;;;9.20;3.50;;;;;;;5.57;65.05;101378.77;104914;1259;60570;-65
2024/02/15 09:20:18;;;;;;;7.20;2.40;;;;;;;5.54;65.17;101380.80;104775;1264;65289;-57
2024/02/15 09:22:50;;;;;;;9.80;3.50;;;;;;;5.56;65.23;101384.02;104871;1266;60419;-61
2024/02/15 09:25:18;;;;;;;8.40;3.50;;;;;;;5.62;65.07;101384.45;106302;1262;63944;-61
2024/02/15 09:27:46;;;;;;;9.00;3.20;;;;;;;5.64;64.99;101382.98;104806;1264;60483;-62
2024/02/15 09:30:15;;;;;;;6.90;3.30;;;;;;;5.63;65.02;101383.75;104630;1264;60565;-62
2024/02/15 09:32:43;;;;;;;8.90;3.50;;;;;;;5.59;65.00;101383.02;105057;1264;67660;-63
2024/02/15 09:35:12;;;;;;;8.30;4.30;;;;;;;5.62;64.91;101380.98;104763;1263;61828;-62
2024/02/15 09:37:52;;;;;;;10.40;3.00;;;;;;;5.63;65.00;101382.53;105019;1265;62532;-59
2024/02/15 09:40:19;;;;;;;8.70;3.60;;;;;;;5.57;65.08;101378.09;105424;1265;61031;-60
2024/02/15 09:42:47;;;;;;;8.00;3.80;;;;;;;5.54;65.12;101382.55;104770;1265;60604;-59
2024/02/15 09:45:16;;;;;;;8.40;3.40;;;;;;;5.56;65.09;101378.27;104874;1262;66277;-57
2024/02/15 09:47:45;;;;;;;9.50;4.30;;;;;;;5.58;65.14;101381.51;104789;1261;60584;-61
2024/02/15 09:50:14;;;;;;;15.20;4.80;;;;;;;5.56;65.03;101378.81;104833;1265;62588;-60
2024/02/15 09:52:52;;;;;;;8.50;2.80;;;;;;;5.51;65.01;101374.50;105082;1265;60558;-58
2024/02/15 09:55:22;;;;;;;8.50;4.70;;;;;;;5.52;64.93;101368.71;105528;1261;60365;-63
2024/02/15 09:57:51;;;;;;;7.20;3.20;;;;;;;5.52;64.93;101372.90;104891;1264;63731;-60
2024/02/15 10:00:20;;;;;;;7.60;3.10;;;;;;;5.49;64.97;101372.65;104678;1264;62030;-56
2024/02/15 10:02:50;;;;;;;8.00;3.20;;;;;;;5.45;65.15;101369.70;104938;1264;64101;-62
2024/02/15 10:05:18;;;;;;;6.00;2.00;;;;;;;5.48;65.13;101369.77;104765;1264;60507;-62
2024/02/15 10:07:46;;;;;;;8.30;3.50;;;;;;;5.53;65.04;101371.10;104837;1264;60342;-61
2024/02/15 10:10:16;;;;;;;7.50;3.50;;;;;;;5.57;65.14;101369.73;104703;1266;65610;-61
2024/02/15 10:12:43;;;;;;;7.80;3.60;;;;;;;5.57;65.14;101367.79;104950;1265;64056;-61
2024/02/15 10:15:11;;;;;;;9.10;4.10;;;;;;;5.63;64.98;101367.36;104772;1265;66517;-61
2024/02/15 10:17:41;;;;;;;10.80;6.00;;;;;;;5.72;64.94;101365.55;105868;1265;60375;-62
2024/02/15 10:20:10;;;;;;;8.70;3.40;;;;;;;5.77;64.82;101368.50;105002;1261;60465;-61
2024/02/15 10:22:38;;;;;;;7.20;3.00;;;;;;;5.79;64.87;101375.05;104928;1260;65977;-61
2024/02/15 10:25:12;;;;;;;7.50;3.20;;;;;;;5.81;64.78;101378.80;104578;1260;60656;-58
2024/02/15 10:27:41;;;;;;;6.90;2.80;;;;;;;5.88;64.72;101375.00;104900;1260;72642;-57
2024/02/15 10:30:17;;;;;;;10.40;5.10;;;;;;;5.98;64.49;101376.11;104722;1265;60767;-61
2024/02/15 10:32:45;;;;;;;7.90;3.40;;;;;;;6.04;64.30;101370.98;104866;1260;60572;-60
2024/02/15 10:35:22;;;;;;;8.90;4.30;;;;;;;6.04;64.16;101371.35;104786;1265;65460;-60
2024/02/15 10:37:52;;;;;;;9.50;3.90;;;;;;;6.00;64.05;101369.59;104907;1265;60427;-60
2024/02/15 10:40:20;;;;;;;11.50;4.70;;;;;;;5.99;63.89;101369.45;104752;1266;66023;-59
2024/02/15 10:42:49;;;;;;;9.30;4.40;;;;;;;6.01;63.73;101365.37;104751;1263;60551;-61
2024/02/15 10:45:20;;;;;;;8.30;3.10;;;;;;;5.99;63.85;101359.73;104710;1265;60547;-58
2024/02/15 10:47:48;;;;;;;10.30;4.30;;;;;;;5.94;63.90;101357.28;105534;1265;76066;-60
2024/02/15 10:50:16;;;;;;;9.50;3.40;;;;;;;5.93;63.89;101356.99;104753;1265;62982;-61
2024/02/15 10:52:51;;;;;;;9.70;4.00;;;;;;;5.97;63.86;101361.69;104787;1266;64341;-56
2024/02/15 10:55:26;;;;;;;10.50;3.00;;;;;;;6.02;63.83;101364.12;104686;1265;62239;-56
2024/02/15 10:57:53;;;;;;;8.40;4.10;;;;;;;6.01;64.17;101363.27;105362;1265;62312;-60
2024/02/15 11:00:25;;;;;;;10.30;4.60;;;;;;;6.04;64.19;101361.77;105463;1267;65315;-57
2024/02/15 11:03:05;;;;;;;9.20;4.10;;;;;;;6.08;64.24;101357.23;105476;1264;64235;-60
2024/02/15 11:05:36;;;;;;;10.90;4.30;;;;;;;6.15;63.72;101357.61;104973;1260;74901;-59
2024/02/15 11:08:08;;;;;;;11.40;5.10;;;;;;;6.15;63.72;101359.17;105278;1260;60413;-60
2024/02/15 11:10:36;;;;;;;10.00;4.50;;;;;;;6.11;63.81;101359.50;105233;1260;60437;-60
2024/02/15 11:13:04;;;;;;;15.70;5.50;;;;;;;6.10;63.74;101360.44;104638;1261;76168;-62
2024/02/15 11:15:51;;;;;;;11.60;6.00;;;;;;;6.13;63.62;101358.38;104568;1268;60784;-61
2024/02/15 11:18:48;;;;;;;9.90;4.40;;;;;;;6.16;63.71;101358.25;104809;1264;74869;-61
2024/02/15 11:21:39;;;;;;;13.00;5.40;;;;;;;6.15;63.74;101357.61;104763;1264;61734;-61
2024/02/15 11:24:29;;;;;;;14.20;4.80;;;;;;;6.14;63.67;101357.45;104748;1260;61631;-58
2024/02/15 11:27:04;;;;;;;13.20;6.20;;;;;;;6.16;63.58;101356.16;104759;1264;74634;-59
2024/02/15 11:29:48;;;;;;;11.70;3.80;;;;;;;6.17;63.77;101359.63;105153;1263;69642;-61
2024/02/15 11:33:02;;;;;;;12.20;4.90;;;;;;;6.17;63.82;101359.77;107366;1264;62526;-60
2024/02/15 11:35:30;;;;;;;15.30;6.10;;;;;;;6.20;63.72;101363.64;104672;1259;60573;-60
2024/02/15 11:37:59;;;;;;;10.60;6.20;;;;;;;6.25;63.52;101365.65;105211;1264;62287;-59
2024/02/15 11:40:29;;;;;;;10.80;4.80;;;;;;;6.27;63.44;101365.20;106039;1263;76538;-60
2024/02/15 11:42:59;;;;;;;15.30;6.70;;;;;;;6.23;63.64;101366.46;105240;1264;70517;-60
2024/02/15 11:45:32;;;;;;;11.60;5.00;;;;;;;6.22;63.68;101362.35;105336;1263;64476;-59
2024/02/15 11:48:01;;;;;;;11.50;5.20;;;;;;;6.26;63.57;101361.80;104871;1262;61025;-59
2024/02/15 11:50:35;;;;;;;15.30;5.70;;;;;;;6.29;63.54;101359.90;105302;1265;60586;-59
2024/02/15 11:53:10;;;;;;;10.90;5.40;;;;;;;6.30;63.48;101358.46;105212;1263;76021;-59
2024/02/15 11:55:40;;;;;;;16.70;5.90;;;;;;;6.26;63.49;101361.27;105048;1264;74966;-58
2024/02/15 12:20:34;;;;;;;12.00;5.30;;;;;;;5.99;64.23;101367.73;104522;1263;65740;-59